Time;durP1;ratioP1;P1;durP2;ratioP2;P2;SDS_P1;SDS_P2;PMS_P1;PMS_P2;Temp;Humidity;BMP_temperature;BMP_pressure;BME280_temperature;BME280_humidity;BME280_pressure;Samples;Min_cycle;Max_cycle;Signal;HPM_P1;HPM_P2
2023/09/27 00:02:12;;;;;;;55.80;29.30;;;;;;;17.19;93.50;101093.59;4197499;28;20237;-68
2023/09/27 00:04:38;;;;;;;50.53;29.30;;;;;;;17.37;92.05;101096.09;4191495;28;20233;-66
2023/09/27 00:07:06;;;;;;;46.57;28.03;;;;;;;17.38;92.15;101096.94;4194631;28;20411;-68
2023/09/27 00:09:34;;;;;;;47.23;28.27;;;;;;;17.29;92.59;101101.59;4196036;28;20252;-68
2023/09/27 00:12:05;;;;;;;48.00;28.50;;;;;;;17.37;92.11;101101.59;4181364;28;20230;-68
2023/09/27 00:14:32;;;;;;;54.17;26.47;;;;;;;17.31;92.34;101090.47;4188581;28;20236;-67
2023/09/27 00:16:58;;;;;;;56.13;28.40;;;;;;;17.30;92.28;101091.50;4196508;28;20232;-67
2023/09/27 00:19:25;;;;;;;49.53;28.87;;;;;;;17.28;92.26;101088.94;4191123;28;20247;-68
2023/09/27 00:21:52;;;;;;;46.83;27.67;;;;;;;17.19;92.50;101092.72;4197058;28;20241;-68
2023/09/27 00:24:19;;;;;;;49.43;28.37;;;;;;;17.16;92.98;101093.94;4207418;28;20237;-67
2023/09/27 00:26:45;;;;;;;45.57;27.73;;;;;;;17.18;92.78;101091.88;4191696;28;20233;-66
2023/09/27 00:29:12;;;;;;;50.07;27.53;;;;;;;17.25;92.35;101087.41;4188697;28;20310;-67
2023/09/27 00:31:39;;;;;;;43.07;27.20;;;;;;;17.22;92.24;101086.91;4201574;28;20379;-68
2023/09/27 00:34:06;;;;;;;48.90;27.90;;;;;;;17.17;92.56;101081.13;4187126;28;20496;-72
2023/09/27 00:36:33;;;;;;;55.07;28.30;;;;;;;17.11;92.67;101080.78;4191419;28;21508;-65
2023/09/27 00:38:59;;;;;;;44.20;27.70;;;;;;;17.02;93.19;101079.13;4183171;28;20310;-67
2023/09/27 00:41:26;;;;;;;45.37;27.47;;;;;;;17.00;93.30;101077.56;4189070;28;20584;-67
2023/09/27 00:43:53;;;;;;;51.10;27.93;;;;;;;16.93;93.66;101078.25;4190607;28;20707;-66
2023/09/27 00:46:22;;;;;;;49.90;27.90;;;;;;;16.98;93.39;101069.53;4192990;28;23009;-67
2023/09/27 00:48:49;;;;;;;46.00;28.00;;;;;;;17.03;93.12;101077.22;4212527;28;20678;-68
2023/09/27 00:51:16;;;;;;;46.30;28.23;;;;;;;16.98;93.04;101076.91;4185542;28;22239;-67
2023/09/27 00:53:45;;;;;;;51.30;28.60;;;;;;;16.91;93.61;101073.97;4201846;28;20240;-67
2023/09/27 00:56:13;;;;;;;46.83;27.40;;;;;;;16.82;93.86;101061.31;4211661;28;20235;-68
2023/09/27 00:58:40;;;;;;;47.67;26.67;;;;;;;16.88;93.75;101069.69;4214319;28;22264;-68
2023/09/27 01:01:06;;;;;;;43.97;28.33;;;;;;;16.87;93.76;101070.72;4204808;28;20288;-69
2023/09/27 01:03:33;;;;;;;45.70;27.50;;;;;;;16.89;93.86;101063.19;4208115;28;25949;-67
2023/09/27 01:06:00;;;;;;;47.93;26.20;;;;;;;16.83;94.24;101061.16;4189967;28;23683;-67
2023/09/27 01:08:27;;;;;;;43.60;27.17;;;;;;;16.83;94.06;101063.03;4203896;28;20318;-66
2023/09/27 01:10:54;;;;;;;42.73;27.03;;;;;;;16.83;94.00;101063.03;4195690;28;22474;-68
2023/09/27 01:13:21;;;;;;;48.53;27.23;;;;;;;16.79;94.42;101057.06;4204999;28;20224;-66
2023/09/27 01:15:48;;;;;;;52.20;27.17;;;;;;;16.77;94.68;101059.09;4212702;28;21151;-67
2023/09/27 01:18:15;;;;;;;44.60;27.90;;;;;;;16.77;94.59;101068.19;4199305;28;20242;-68
2023/09/27 01:20:42;;;;;;;48.17;26.70;;;;;;;16.72;95.12;101064.25;4212351;28;20238;-68
2023/09/27 01:23:08;;;;;;;46.23;27.67;;;;;;;16.72;95.35;101058.78;4189929;28;20433;-68
2023/09/27 01:25:37;;;;;;;59.00;29.63;;;;;;;16.69;95.46;101045.47;4195160;28;22978;-67
2023/09/27 01:28:10;;;;;;;52.87;28.40;;;;;;;16.72;95.15;101061.50;4199354;28;20236;-70
2023/09/27 01:30:38;;;;;;;47.33;28.27;;;;;;;16.71;95.39;101057.94;4205076;28;20244;-68
2023/09/27 01:33:07;;;;;;;53.80;28.80;;;;;;;16.72;95.36;101061.50;4204140;28;20237;-69
2023/09/27 01:35:37;;;;;;;45.23;28.50;;;;;;;16.68;95.35;101057.44;4194979;28;20250;-69
2023/09/27 01:38:06;;;;;;;42.57;25.80;;;;;;;16.71;95.55;101048.88;4193349;28;20454;-68
2023/09/27 01:40:38;;;;;;;45.77;26.93;;;;;;;16.69;95.40;101057.25;4187629;28;20263;-70
2023/09/27 01:43:06;;;;;;;44.97;27.03;;;;;;;16.68;95.19;101055.53;4200762;28;21280;-68
2023/09/27 01:45:33;;;;;;;48.47;26.53;;;;;;;16.70;95.24;101038.94;4206929;28;20383;-69
2023/09/27 01:48:01;;;;;;;46.33;25.53;;;;;;;16.66;95.45;101041.19;4193607;28;20320;-71
2023/09/27 01:50:30;;;;;;;45.70;26.67;;;;;;;16.66;95.47;101043.91;4197951;28;20786;-67
2023/09/27 01:52:57;;;;;;;46.07;25.90;;;;;;;16.69;95.15;101038.13;4205269;28;20403;-68
2023/09/27 01:55:24;;;;;;;50.47;26.43;;;;;;;16.70;95.20;101036.22;4193350;28;21621;-68
2023/09/27 01:57:52;;;;;;;42.90;26.20;;;;;;;16.69;95.17;101057.25;4196345;28;20262;-69
2023/09/27 02:00:20;;;;;;;42.10;25.73;;;;;;;16.66;95.21;101049.38;4200053;28;20464;-68
2023/09/27 02:02:51;;;;;;;44.00;25.03;;;;;;;16.68;95.03;101043.75;4227231;28;21814;-67
2023/09/27 02:05:18;;;;;;;43.97;24.93;;;;;;;16.66;95.09;101048.53;4206041;28;26534;-67
2023/09/27 02:07:44;;;;;;;44.77;26.70;;;;;;;16.61;95.39;101047.19;4211173;28;22418;-68
2023/09/27 02:10:11;;;;;;;50.07;26.77;;;;;;;16.58;95.45;101050.25;4208648;28;20311;-67
2023/09/27 02:12:38;;;;;;;48.83;27.70;;;;;;;16.58;95.42;101047.53;4211803;28;20320;-67
2023/09/27 02:15:09;;;;;;;49.60;26.30;;;;;;;16.56;95.75;101044.09;4204361;28;20300;-67
2023/09/27 02:17:37;;;;;;;50.37;29.23;;;;;;;16.52;95.74;101042.75;4196503;28;21144;-67
2023/09/27 02:20:17;;;;;;;48.30;27.80;;;;;;;16.53;95.82;101049.06;4208477;28;20344;-67
2023/09/27 02:22:47;;;;;;;56.73;29.80;;;;;;;16.53;95.82;101043.59;4219101;28;21165;-68
2023/09/27 02:25:15;;;;;;;51.50;28.33;;;;;;;16.56;95.76;101046.84;4209448;28;21737;-68
2023/09/27 02:27:43;;;;;;;47.37;27.13;;;;;;;16.54;95.73;101043.41;4199972;28;20242;-67
2023/09/27 02:30:14;;;;;;;43.30;26.43;;;;;;;16.55;95.88;101045.13;4207574;28;20985;-70
2023/09/27 02:32:45;;;;;;;52.17;27.43;;;;;;;16.54;95.89;101031.63;4217307;28;21736;-67
2023/09/27 02:35:18;;;;;;;43.50;25.63;;;;;;;16.58;95.59;101031.13;4181195;28;21182;-67
2023/09/27 02:37:45;;;;;;;39.77;24.97;;;;;;;16.59;95.53;101031.97;4204130;28;21817;-68
2023/09/27 02:40:12;;;;;;;45.80;25.57;;;;;;;16.53;95.71;101041.72;4198010;28;20325;-68
2023/09/27 02:42:44;;;;;;;46.57;25.13;;;;;;;16.50;95.98;101042.06;4213069;28;22164;-69
2023/09/27 02:45:12;;;;;;;53.00;25.43;;;;;;;16.49;96.09;101045.81;4215216;28;21755;-68
2023/09/27 02:47:43;;;;;;;41.80;24.37;;;;;;;16.46;96.26;101046.19;4201018;28;22471;-68
2023/09/27 02:50:11;;;;;;;37.83;23.63;;;;;;;16.41;96.52;101038.50;4201828;28;20253;-68
2023/09/27 02:52:38;;;;;;;47.73;25.43;;;;;;;16.35;96.87;101046.50;4218729;28;23531;-68
2023/09/27 02:55:08;;;;;;;48.07;24.30;;;;;;;16.31;96.95;101046.00;4202096;28;20421;-67
2023/09/27 02:57:36;;;;;;;42.00;24.20;;;;;;;16.30;97.00;101044.28;4193443;28;20309;-69
2023/09/27 03:00:04;;;;;;;44.70;25.63;;;;;;;16.25;97.01;101046.69;4199875;28;20237;-67
2023/09/27 03:02:33;;;;;;;46.30;24.90;;;;;;;16.24;97.25;101047.69;4205712;28;20237;-67
2023/09/27 03:05:00;;;;;;;41.70;24.07;;;;;;;16.14;97.31;101034.22;4198438;28;20241;-66
2023/09/27 03:07:26;;;;;;;51.60;25.07;;;;;;;16.15;97.38;101047.69;4201828;28;20866;-68
2023/09/27 03:09:53;;;;;;;50.47;25.13;;;;;;;16.08;97.68;101043.09;4203836;28;20236;-68
2023/09/27 03:12:19;;;;;;;43.07;23.67;;;;;;;16.04;97.89;101044.44;4203871;28;22208;-67
2023/09/27 03:14:46;;;;;;;39.30;23.63;;;;;;;15.99;98.13;101045.78;4206034;28;20417;-68
2023/09/27 03:17:12;;;;;;;47.50;24.60;;;;;;;15.96;98.60;101048.00;4202404;28;20483;-68
2023/09/27 03:19:39;;;;;;;42.67;23.43;;;;;;;15.90;98.38;101040.50;4232142;28;20566;-67
2023/09/27 03:22:05;;;;;;;35.03;23.17;;;;;;;15.93;98.70;101046.47;4220205;28;20244;-68
2023/09/27 03:24:34;;;;;;;42.07;24.07;;;;;;;15.87;98.61;101046.28;4201691;28;20438;-68
2023/09/27 03:27:02;;;;;;;39.23;23.30;;;;;;;15.88;98.70;101042.53;4200873;28;21188;-68
2023/09/27 03:29:30;;;;;;;42.90;24.67;;;;;;;15.83;99.00;101041.13;4208227;28;22308;-67
2023/09/27 03:31:57;;;;;;;40.23;25.03;;;;;;;15.77;98.94;101040.94;4212478;28;20387;-67
2023/09/27 03:34:23;;;;;;;44.27;23.17;;;;;;;15.78;99.06;101048.13;4209381;28;21366;-68
2023/09/27 03:36:55;;;;;;;38.63;24.53;;;;;;;15.67;99.25;101044.66;4194820;28;20237;-67
2023/09/27 03:39:22;;;;;;;40.07;24.90;;;;;;;15.53;99.97;101040.69;4220102;28;22299;-69
2023/09/27 03:41:52;;;;;;;42.17;24.67;;;;;;;15.52;100.00;101041.69;4205581;28;20933;-68
2023/09/27 03:44:18;;;;;;;36.73;24.37;;;;;;;15.52;100.00;101038.97;4192843;28;20288;-68
2023/09/27 03:46:46;;;;;;;41.80;25.30;;;;;;;15.51;100.00;101037.28;4201850;28;21212;-68
2023/09/27 03:49:13;;;;;;;41.53;25.17;;;;;;;15.50;100.00;101041.03;4215122;28;20303;-68
2023/09/27 03:51:40;;;;;;;50.87;25.47;;;;;;;15.41;100.00;101033.84;4201828;28;20234;-68
2023/09/27 03:54:06;;;;;;;42.13;23.93;;;;;;;15.48;100.00;101039.50;4193725;28;20337;-67
2023/09/27 03:56:33;;;;;;;42.50;24.33;;;;;;;15.43;100.00;101039.13;4224545;28;23883;-67
2023/09/27 03:58:59;;;;;;;38.07;23.90;;;;;;;15.47;100.00;101035.88;4205242;28;20235;-68
2023/09/27 04:01:26;;;;;;;48.73;25.33;;;;;;;15.34;100.00;101030.88;4201490;28;20239;-68
2023/09/27 04:03:53;;;;;;;45.80;26.47;;;;;;;15.29;100.00;101036.00;4202396;28;21205;-68
2023/09/27 04:06:20;;;;;;;46.77;26.37;;;;;;;15.21;100.00;101035.97;4203647;28;20266;-68
2023/09/27 04:08:46;;;;;;;43.50;27.17;;;;;;;15.22;100.00;101034.94;4215493;28;20312;-68
2023/09/27 04:11:14;;;;;;;43.53;26.70;;;;;;;15.18;100.00;101039.03;4193729;28;21415;-67
2023/09/27 04:13:40;;;;;;;43.37;27.13;;;;;;;15.15;100.00;101042.06;4197637;28;20590;-68
2023/09/27 04:16:07;;;;;;;49.97;28.20;;;;;;;15.10;100.00;101044.44;4196391;28;23486;-69
2023/09/27 04:18:33;;;;;;;45.23;26.87;;;;;;;15.10;100.00;101050.72;4216980;28;20892;-67
2023/09/27 04:21:07;;;;;;;48.03;27.93;;;;;;;15.13;100.00;101046.81;4204594;28;25208;-67
2023/09/27 04:23:36;;;;;;;44.53;27.13;;;;;;;15.08;100.00;101049.19;4196945;28;20233;-68
2023/09/27 04:26:06;;;;;;;49.60;29.13;;;;;;;15.10;100.00;101048.00;4193916;28;20245;-69
2023/09/27 04:28:33;;;;;;;44.13;27.90;;;;;;;15.16;100.00;101052.81;4181951;28;20641;-69
2023/09/27 04:31:00;;;;;;;55.90;29.30;;;;;;;15.11;100.00;101052.44;4200625;28;20322;-68
2023/09/27 04:33:27;;;;;;;51.23;28.93;;;;;;;15.10;100.00;101049.88;4193252;28;20347;-67
2023/09/27 04:35:54;;;;;;;44.77;27.87;;;;;;;15.17;100.00;101050.94;4199380;28;20240;-68
2023/09/27 04:38:21;;;;;;;47.37;28.27;;;;;;;15.23;100.00;101052.16;4227481;28;20238;-69
2023/09/27 04:40:48;;;;;;;50.83;28.70;;;;;;;15.16;100.00;101049.22;4205721;28;20233;-68
2023/09/27 04:43:14;;;;;;;49.43;28.27;;;;;;;15.14;100.00;101046.69;4234007;28;21604;-67
2023/09/27 04:45:41;;;;;;;48.77;28.10;;;;;;;15.15;100.00;101044.78;4200790;28;21421;-72
2023/09/27 04:48:08;;;;;;;48.03;28.87;;;;;;;15.17;100.00;101046.34;4207583;28;20257;-73
2023/09/27 04:50:35;;;;;;;47.87;28.17;;;;;;;15.16;100.00;101038.31;4196213;28;20245;-74
2023/09/27 04:53:02;;;;;;;52.77;28.47;;;;;;;15.17;100.00;101043.59;4192714;28;26156;-73
2023/09/27 04:55:29;;;;;;;47.70;28.63;;;;;;;15.32;100.00;101046.59;4184343;28;20284;-72
2023/09/27 04:57:56;;;;;;;51.70;28.03;;;;;;;15.22;100.00;101043.13;4200504;28;21633;-74
2023/09/27 05:00:23;;;;;;;47.27;28.60;;;;;;;15.25;100.00;101053.72;4193121;28;20685;-74
2023/09/27 05:02:51;;;;;;;50.27;28.33;;;;;;;15.25;100.00;101053.72;4197360;28;21618;-76
2023/09/27 05:05:18;;;;;;;49.13;28.80;;;;;;;15.19;100.00;101055.22;4194442;28;20316;-73
2023/09/27 05:07:45;;;;;;;52.03;28.00;;;;;;;15.21;100.00;101049.59;4194347;28;20458;-76
2023/09/27 05:10:12;;;;;;;49.10;28.87;;;;;;;15.25;100.00;101053.72;4197043;28;20233;-77
2023/09/27 05:12:39;;;;;;;46.13;27.77;;;;;;;15.30;100.00;101055.94;4182346;28;20241;-72
2023/09/27 05:15:09;;;;;;;51.23;29.33;;;;;;;15.30;100.00;101056.81;4194750;28;20725;-73
2023/09/27 05:17:36;;;;;;;50.00;26.97;;;;;;;15.35;100.00;101053.59;4192375;28;21905;-75
2023/09/27 05:20:10;;;;;;;43.73;28.07;;;;;;;15.44;100.00;101068.97;4196996;28;26222;-74
2023/09/27 05:22:42;;;;;;;49.57;27.20;;;;;;;15.49;100.00;101066.59;4190743;28;25566;-72
2023/09/27 05:25:10;;;;;;;44.73;28.33;;;;;;;15.44;100.00;101068.97;4193374;28;20228;-72
2023/09/27 05:27:38;;;;;;;48.80;28.17;;;;;;;15.47;100.00;101070.53;4205738;28;20237;-73
2023/09/27 05:30:07;;;;;;;48.67;26.53;;;;;;;15.53;99.97;101069.84;4194943;28;20237;-73
2023/09/27 05:32:34;;;;;;;56.23;28.67;;;;;;;15.58;99.70;101072.09;4171802;28;20467;-73
2023/09/27 05:35:01;;;;;;;51.60;27.33;;;;;;;15.62;98.37;101071.59;4204875;28;20234;-73
2023/09/27 05:37:30;;;;;;;46.93;25.63;;;;;;;15.87;97.24;101074.41;4200674;28;20276;-75
2023/09/27 05:39:56;;;;;;;46.43;25.83;;;;;;;15.78;97.00;101067.22;4200349;28;20248;-72
2023/09/27 05:42:23;;;;;;;49.70;28.57;;;;;;;15.73;97.97;101072.31;4200436;28;20247;-72
2023/09/27 05:44:50;;;;;;;48.77;26.57;;;;;;;15.88;96.86;101081.59;4247653;28;22674;-74
2023/09/27 05:47:18;;;;;;;46.73;26.47;;;;;;;15.97;95.69;101077.88;4243630;28;20768;-75
2023/09/27 05:49:45;;;;;;;51.57;25.57;;;;;;;15.87;96.04;101073.59;4226908;28;20236;-73
2023/09/27 05:52:12;;;;;;;42.50;24.93;;;;;;;16.01;95.45;101078.38;4230481;28;23025;-76
2023/09/27 05:54:39;;;;;;;42.00;24.27;;;;;;;16.02;94.87;101074.63;4268513;28;20341;-78
2023/09/27 05:57:06;;;;;;;53.90;26.13;;;;;;;16.03;95.05;101081.81;4219542;28;20454;-76
2023/09/27 05:59:34;;;;;;;41.40;23.90;;;;;;;16.09;94.38;101077.53;4226251;28;20235;-74
2023/09/27 06:02:00;;;;;;;36.77;23.93;;;;;;;16.22;94.08;101077.91;4232766;28;22553;-75
2023/09/27 06:04:27;;;;;;;45.20;24.50;;;;;;;16.18;93.49;101082.00;4223420;28;21869;-73
2023/09/27 06:06:55;;;;;;;46.37;24.07;;;;;;;16.13;93.47;101074.31;4228384;28;20228;-76
2023/09/27 06:09:21;;;;;;;39.93;24.27;;;;;;;16.23;93.31;101073.31;4216132;28;20613;-71
2023/09/27 06:11:50;;;;;;;43.83;23.33;;;;;;;16.35;92.34;101087.47;4240168;28;20544;-74
2023/09/27 06:14:17;;;;;;;45.63;23.43;;;;;;;16.41;92.25;101089.53;4271984;28;20584;-74
2023/09/27 06:16:45;;;;;;;41.90;24.80;;;;;;;16.38;92.08;101090.72;4246400;28;20220;-74
2023/09/27 06:19:11;;;;;;;43.97;23.03;;;;;;;16.54;90.74;101080.84;4232930;28;20380;-74
2023/09/27 06:21:39;;;;;;;37.37;21.73;;;;;;;16.57;90.80;101084.06;4193605;28;20238;-72
2023/09/27 06:24:07;;;;;;;42.23;22.50;;;;;;;16.51;90.61;101095.69;4209423;28;20228;-74
2023/09/27 06:26:34;;;;;;;42.20;22.17;;;;;;;16.60;90.85;101096.53;4201761;28;20252;-74
2023/09/27 06:29:00;;;;;;;45.40;23.80;;;;;;;16.64;90.36;101096.03;4214438;28;22767;-75
2023/09/27 06:31:29;;;;;;;41.83;21.93;;;;;;;16.83;89.19;101096.72;4208756;28;20233;-77
2023/09/27 06:33:56;;;;;;;34.37;21.00;;;;;;;16.83;89.14;101096.72;4223277;28;20242;-76
2023/09/27 06:36:23;;;;;;;40.20;21.53;;;;;;;17.09;87.54;101090.19;4207612;28;20444;-75
2023/09/27 06:38:50;;;;;;;37.00;20.80;;;;;;;17.16;86.79;101091.19;4213775;28;22289;-75
2023/09/27 06:41:17;;;;;;;35.53;20.67;;;;;;;17.23;85.90;101096.84;4216758;28;20655;-75
2023/09/27 06:43:44;;;;;;;40.90;20.57;;;;;;;17.16;86.79;101099.41;4208937;28;20408;-75
2023/09/27 06:46:12;;;;;;;34.50;19.80;;;;;;;17.29;86.72;101100.75;4217276;28;20633;-74
2023/09/27 06:48:41;;;;;;;32.47;20.87;;;;;;;17.29;85.79;101092.56;4202564;28;20241;-75
2023/09/27 06:51:08;;;;;;;39.40;19.93;;;;;;;17.39;85.46;101091.31;4218664;28;20552;-78
2023/09/27 06:53:35;;;;;;;36.60;19.73;;;;;;;17.47;84.51;101095.91;4192619;28;20230;-76
2023/09/27 06:56:02;;;;;;;37.30;20.27;;;;;;;17.53;84.64;101094.34;4222298;28;20233;-77
2023/09/27 06:58:30;;;;;;;40.07;20.47;;;;;;;17.69;83.10;101102.50;4241054;28;20322;-76
2023/09/27 07:00:59;;;;;;;36.17;20.23;;;;;;;17.68;83.05;101087.09;4227838;28;20233;-77
2023/09/27 07:03:29;;;;;;;37.90;19.80;;;;;;;17.97;81.38;101103.94;4210075;28;20233;-74
2023/09/27 07:05:57;;;;;;;31.93;18.70;;;;;;;17.96;81.69;101099.47;4235027;28;20257;-78
2023/09/27 07:08:24;;;;;;;42.40;18.90;;;;;;;18.18;81.27;101100.53;4224959;28;21372;-75
2023/09/27 07:10:50;;;;;;;34.53;19.17;;;;;;;18.38;79.87;101095.44;4253910;28;22201;-76
2023/09/27 07:13:17;;;;;;;46.03;19.37;;;;;;;18.60;78.98;101095.59;4342936;28;22454;-75
2023/09/27 07:15:45;;;;;;;36.80;19.03;;;;;;;18.74;78.27;101093.94;4280572;28;23176;-74
2023/09/27 07:18:13;;;;;;;38.07;20.53;;;;;;;19.37;75.94;101094.50;4219912;28;20237;-72
2023/09/27 07:20:41;;;;;;;31.07;17.63;;;;;;;20.13;72.02;101106.25;4270953;28;20831;-75
2023/09/27 07:23:14;;;;;;;27.30;15.80;;;;;;;22.78;64.49;101099.97;4310777;28;20675;-72
2023/09/27 07:25:42;;;;;;;29.43;15.13;;;;;;;24.92;55.45;101105.72;4278226;28;20243;-76
2023/09/27 07:28:10;;;;;;;26.47;14.13;;;;;;;26.76;48.91;101099.38;4272328;28;20231;-73
2023/09/27 07:30:37;;;;;;;31.13;15.83;;;;;;;27.70;47.27;101104.06;4282679;28;20231;-70
2023/09/27 07:33:11;;;;;;;39.75;14.80;;;;;;;27.25;47.23;101102.78;4253751;28;20972;-70
2023/09/27 07:35:43;;;;;;;30.33;14.77;;;;;;;28.30;45.90;101113.91;4254745;28;20302;-70
2023/09/27 07:38:11;;;;;;;23.58;13.95;;;;;;;29.44;42.88;101120.53;4248197;28;21515;-69
2023/09/27 07:40:38;;;;;;;25.48;14.45;;;;;;;30.04;40.39;101116.84;4266112;28;20561;-69
2023/09/27 07:43:05;;;;;;;30.75;14.40;;;;;;;29.58;40.57;101121.84;4232084;28;20228;-72
2023/09/27 07:45:35;;;;;;;27.98;12.60;;;;;;;31.04;38.28;101116.66;4270831;28;20251;-71
2023/09/27 07:48:03;;;;;;;23.10;12.50;;;;;;;31.65;37.87;101115.38;4264668;28;22226;-73
2023/09/27 07:50:33;;;;;;;30.45;13.82;;;;;;;32.15;36.16;101127.88;4283304;28;20250;-73
2023/09/27 07:53:03;;;;;;;30.73;13.30;;;;;;;33.24;34.71;101114.78;4309181;28;20299;-72
2023/09/27 07:55:34;;;;;;;23.17;13.48;;;;;;;31.76;37.65;101123.56;4287273;28;20308;-72
2023/09/27 07:58:03;;;;;;;28.65;12.95;;;;;;;32.49;36.33;101124.63;4295267;28;20421;-73
2023/09/27 08:00:33;;;;;;;23.15;12.18;;;;;;;33.81;33.72;101126.69;4291039;28;20260;-73
2023/09/27 08:03:00;;;;;;;33.47;13.10;;;;;;;34.38;32.26;101134.84;4271189;28;20254;-72
2023/09/27 08:05:30;;;;;;;33.50;12.85;;;;;;;34.50;32.38;101142.94;4286633;28;20259;-72
2023/09/27 08:08:01;;;;;;;21.05;11.60;;;;;;;35.02;31.70;101134.91;4239612;28;20296;-81
2023/09/27 08:10:30;;;;;;;29.77;13.05;;;;;;;36.21;29.39;101133.56;4245852;28;21144;-72
2023/09/27 08:12:56;;;;;;;27.80;12.10;;;;;;;34.82;31.27;101129.44;4296105;28;20627;-72
2023/09/27 08:15:23;;;;;;;30.02;12.95;;;;;;;32.68;34.15;101127.72;4246625;28;20275;-71
2023/09/27 08:17:50;;;;;;;30.20;13.63;;;;;;;31.76;36.93;101133.94;4250740;28;21682;-73
2023/09/27 08:20:18;;;;;;;27.75;13.13;;;;;;;32.89;34.58;101141.75;4250223;28;20387;-75
2023/09/27 08:22:45;;;;;;;23.48;12.38;;;;;;;34.31;32.35;101136.28;4258989;28;20393;-73
2023/09/27 08:25:15;;;;;;;26.73;13.18;;;;;;;33.92;33.14;101137.91;4270675;28;20842;-72
2023/09/27 08:27:43;;;;;;;25.77;13.23;;;;;;;33.68;33.41;101146.13;4218910;28;20620;-71
2023/09/27 08:30:11;;;;;;;28.27;13.27;;;;;;;32.34;35.47;101147.84;4240295;28;20313;-75
2023/09/27 08:32:39;;;;;;;19.75;12.82;;;;;;;32.04;36.16;101143.00;4233237;28;20248;-66
2023/09/27 08:35:06;;;;;;;27.52;13.77;;;;;;;30.58;38.84;101140.34;4219594;28;20578;-67
2023/09/27 08:37:33;;;;;;;26.95;13.30;;;;;;;29.76;40.76;101150.53;4202123;28;20236;-69
2023/09/27 08:40:03;;;;;;;29.30;13.20;;;;;;;28.43;43.11;101148.97;4209665;28;20232;-67
2023/09/27 08:42:32;;;;;;;20.33;12.13;;;;;;;28.06;44.30;101152.13;4246451;28;20240;-68
2023/09/27 08:45:01;;;;;;;27.75;13.68;;;;;;;28.19;43.94;101147.38;4307492;28;20230;-68
2023/09/27 08:47:30;;;;;;;26.60;12.80;;;;;;;28.22;43.71;101146.88;4318435;28;20567;-71
2023/09/27 08:49:58;;;;;;;29.00;15.73;;;;;;;27.11;46.66;101146.66;4212956;28;20681;-68
2023/09/27 08:52:27;;;;;;;30.35;14.25;;;;;;;27.12;47.10;101142.78;4220966;28;20862;-67
2023/09/27 08:54:55;;;;;;;26.73;13.60;;;;;;;27.16;47.08;101143.97;4255488;28;21045;-67
2023/09/27 08:57:26;;;;;;;27.92;13.65;;;;;;;26.86;48.71;101139.38;4256599;28;20256;-68
2023/09/27 08:59:53;;;;;;;27.75;14.32;;;;;;;26.91;48.87;101141.44;4249495;28;20295;-69
2023/09/27 09:02:22;;;;;;;32.28;13.55;;;;;;;27.08;47.73;101138.78;4243347;28;20240;-67
2023/09/27 09:04:49;;;;;;;35.58;14.07;;;;;;;26.28;49.88;101135.34;4216702;28;20249;-67
2023/09/27 09:07:16;;;;;;;26.83;14.37;;;;;;;26.56;50.08;101133.84;4206075;28;20243;-68
2023/09/27 09:09:45;;;;;;;26.07;14.73;;;;;;;26.49;49.74;101139.50;4227837;28;20554;-67
2023/09/27 09:12:12;;;;;;;30.17;14.37;;;;;;;26.40;49.53;101133.44;4234110;28;20426;-67
2023/09/27 09:14:49;;;;;;;27.87;13.87;;;;;;;26.98;48.55;101133.00;4220675;28;21219;-69
2023/09/27 09:17:25;;;;;;;27.83;13.02;;;;;;;26.11;50.74;101137.91;4224208;28;25928;-66
2023/09/27 09:20:28;;;;;;;24.90;12.68;;;;;;;25.81;50.96;101146.16;4218303;28;22330;-65
2023/09/27 09:22:57;;;;;;;26.70;12.77;;;;;;;25.58;52.04;101143.00;4263226;28;21621;-65
2023/09/27 09:25:24;;;;;;;30.73;13.33;;;;;;;25.23;53.81;101142.69;4222966;28;21110;-66
2023/09/27 09:28:04;;;;;;;25.20;12.70;;;;;;;25.86;52.26;101138.00;4215994;28;20250;-67
2023/09/27 09:30:38;;;;;;;27.43;11.90;;;;;;;25.86;51.84;101130.53;4238341;28;20306;-68
2023/09/27 09:33:16;;;;;;;25.60;12.80;;;;;;;25.31;52.87;101134.09;4277441;28;20346;-66
2023/09/27 09:35:44;;;;;;;36.10;13.23;;;;;;;25.67;52.53;101142.69;4205276;28;20236;-66
2023/09/27 09:38:12;;;;;;;22.00;12.17;;;;;;;25.81;52.63;101135.91;4263592;28;20286;-65
2023/09/27 09:40:56;;;;;;;29.57;11.57;;;;;;;25.41;53.00;101141.94;4235070;28;20283;-66
2023/09/27 09:43:36;;;;;;;23.40;12.90;;;;;;;25.21;53.89;101142.94;4210167;28;20330;-66
2023/09/27 09:46:10;;;;;;;24.67;12.23;;;;;;;24.95;54.15;101142.13;4207069;28;20240;-66
2023/09/27 09:48:41;;;;;;;31.80;12.50;;;;;;;25.14;53.75;101137.47;4274830;28;20254;-66
2023/09/27 09:51:08;;;;;;;29.20;12.60;;;;;;;25.02;54.09;101135.66;4217485;28;20233;-68
2023/09/27 09:53:40;;;;;;;35.63;11.67;;;;;;;25.40;52.75;101146.63;4232480;28;20237;-66
2023/09/27 09:56:09;;;;;;;27.30;11.67;;;;;;;25.38;53.08;101136.81;4217499;28;20676;-63
2023/09/27 09:58:46;;;;;;;28.67;12.50;;;;;;;24.63;54.96;101138.47;4229820;28;20244;-66
2023/09/27 10:01:21;;;;;;;23.87;11.23;;;;;;;24.99;55.12;101145.28;4241592;28;22734;-66
2023/09/27 10:03:52;;;;;;;24.43;12.30;;;;;;;25.41;52.90;101142.78;4220739;28;20348;-48
2023/09/27 10:06:20;;;;;;;31.90;11.83;;;;;;;25.77;51.47;101148.56;4257951;28;20433;-71
2023/09/27 10:09:13;;;;;;;25.17;11.37;;;;;;;25.52;52.78;101143.94;4198999;28;20476;-72
2023/09/27 10:11:44;;;;;;;28.00;11.00;;;;;;;25.48;53.45;101137.16;4218478;28;20229;-74
2023/09/27 10:14:15;;;;;;;31.50;10.73;;;;;;;25.70;51.71;101142.25;4257213;28;22846;-69
2023/09/27 10:16:43;;;;;;;26.73;11.20;;;;;;;25.83;52.23;101128.22;4237460;28;20228;-47
2023/09/27 10:19:10;;;;;;;32.13;12.75;;;;;;;25.90;51.46;101128.97;4255597;28;20240;-66
2023/09/27 10:22:01;;;;;;;28.45;12.48;;;;;;;25.93;51.73;101135.97;4221354;28;20605;-67
2023/09/27 10:24:31;;;;;;;31.77;11.25;;;;;;;26.05;52.42;101133.28;4219749;28;20246;-66
2023/09/27 10:26:58;;;;;;;21.93;11.10;;;;;;;26.03;51.39;101135.41;4187247;28;20751;-65
2023/09/27 10:29:25;;;;;;;22.92;9.90;;;;;;;25.89;50.87;101137.53;4224580;28;21771;-65
2023/09/27 10:31:57;;;;;;;25.85;10.07;;;;;;;25.92;50.54;101126.81;4233578;28;20956;-66
2023/09/27 10:34:37;;;;;;;23.47;9.77;;;;;;;26.08;51.77;101130.06;4226791;28;20308;-45
2023/09/27 10:37:04;;;;;;;30.27;9.70;;;;;;;26.12;49.96;101130.44;4221063;28;20388;-66
2023/09/27 10:40:19;;;;;;;22.00;9.70;;;;;;;26.12;49.99;101119.34;4204647;28;21063;-68
2023/09/27 10:42:46;;;;;;;23.43;9.40;;;;;;;26.15;48.45;101121.63;4222129;28;20380;-69
2023/09/27 10:45:13;;;;;;;21.75;9.18;;;;;;;26.26;48.63;101118.91;4206679;28;20241;-68
2023/09/27 10:47:40;;;;;;;21.23;8.57;;;;;;;26.19;47.81;101122.88;4209185;28;20591;-69
2023/09/27 10:50:09;;;;;;;18.27;9.23;;;;;;;26.08;49.00;101113.44;4235473;28;20224;-68
2023/09/27 10:52:37;;;;;;;28.27;9.00;;;;;;;26.34;48.07;101125.22;4241172;28;20234;-70
2023/09/27 10:55:11;;;;;;;21.30;8.83;;;;;;;26.07;48.31;101117.25;4193792;28;22478;-69
2023/09/27 10:57:39;;;;;;;20.23;8.80;;;;;;;26.29;47.88;101112.03;4228726;28;22543;-67
2023/09/27 11:00:10;;;;;;;23.07;9.20;;;;;;;26.42;48.79;101111.84;4215136;28;20241;-67
2023/09/27 11:02:37;;;;;;;19.00;9.48;;;;;;;26.54;49.03;101106.34;4193275;28;20249;-66
2023/09/27 11:05:06;;;;;;;26.27;9.50;;;;;;;26.50;49.31;101107.06;4207524;28;20390;-67
2023/09/27 11:07:43;;;;;;;27.53;9.70;;;;;;;26.24;50.46;101107.22;4262679;28;20246;-67
2023/09/27 11:10:10;;;;;;;34.90;9.73;;;;;;;25.68;50.70;101108.34;4224334;28;20236;-68
2023/09/27 11:12:36;;;;;;;30.00;9.30;;;;;;;25.53;50.72;101106.81;4232191;28;23203;-69
2023/09/27 11:15:03;;;;;;;18.90;8.80;;;;;;;25.91;49.68;101096.53;4219710;28;20512;-68
2023/09/27 11:17:30;;;;;;;17.30;8.65;;;;;;;26.15;49.32;101094.75;4205368;28;20295;-68